createdAt,value
2023-02-12T00:03:47.852Z,99.90
2023-02-12T00:07:51.214Z,99.90
2023-02-12T00:11:55.894Z,99.90
2023-02-12T00:15:59.389Z,99.90
2023-02-12T00:20:11.228Z,99.90
2023-02-12T00:24:14.456Z,99.90
2023-02-12T00:28:19.254Z,99.90
2023-02-12T00:32:23.550Z,99.90
2023-02-12T00:36:31.211Z,99.90
2023-02-12T00:40:34.410Z,99.90
2023-02-12T00:44:39.172Z,99.90
2023-02-12T00:48:42.509Z,99.90
2023-02-12T00:52:45.867Z,99.90
2023-02-12T00:56:49.030Z,99.90
2023-02-12T01:00:54.491Z,99.90
2023-02-12T01:04:58.691Z,99.90
2023-02-12T01:09:02.759Z,99.90
2023-02-12T01:13:05.917Z,99.90
2023-02-12T01:17:12.588Z,99.90
2023-02-12T01:21:19.194Z,99.90
2023-02-12T01:25:22.643Z,99.90
2023-02-12T01:29:25.940Z,99.90
2023-02-12T01:33:32.691Z,99.90
2023-02-12T01:37:37.259Z,99.90
2023-02-12T01:41:45.239Z,99.90
2023-02-12T01:45:54.659Z,99.90
2023-02-12T01:49:59.626Z,99.90
2023-02-12T01:54:07.822Z,99.90
2023-02-12T01:58:11.632Z,99.90
2023-02-12T02:02:15.516Z,99.90
2023-02-12T02:06:23.892Z,99.90
2023-02-12T02:10:27.458Z,99.90
2023-02-12T02:14:34.015Z,99.90
2023-02-12T02:18:43.856Z,99.90
2023-02-12T02:22:54.018Z,99.90
2023-02-12T02:27:21.991Z,99.90
2023-02-12T02:31:32.044Z,99.90
2023-02-12T02:35:42.797Z,99.90
2023-02-12T02:39:54.742Z,99.90
2023-02-12T02:43:58.028Z,99.90
2023-02-12T02:48:08.270Z,99.90
2023-02-12T02:52:17.660Z,99.90
2023-02-12T02:56:24.322Z,99.90
2023-02-12T03:00:36.928Z,99.90
2023-02-12T03:04:46.298Z,99.90
2023-02-12T03:08:55.702Z,99.90
2023-02-12T03:13:04.678Z,99.90
2023-02-12T03:17:14.598Z,99.90
2023-02-12T03:21:31.835Z,99.90
2023-02-12T03:25:38.384Z,99.90
2023-02-12T03:29:41.800Z,99.90
2023-02-12T03:34:02.394Z,99.90
2023-02-12T03:38:12.836Z,99.90
2023-02-12T03:42:23.750Z,99.90
2023-02-12T03:46:32.873Z,99.90
2023-02-12T03:50:45.646Z,99.90
2023-02-12T03:54:50.266Z,99.90
2023-02-12T03:58:53.643Z,99.90
2023-02-12T04:02:57.011Z,99.90
2023-02-12T04:07:01.167Z,99.90
2023-02-12T04:11:15.875Z,99.90
2023-02-12T04:15:35.315Z,99.90
2023-02-12T04:19:50.148Z,99.90
2023-02-12T04:24:06.774Z,99.90
2023-02-12T04:28:19.829Z,99.90
2023-02-12T04:32:33.662Z,99.90
2023-02-12T04:36:43.797Z,99.90
2023-02-12T04:40:47.724Z,99.90
2023-02-12T04:44:52.847Z,99.90
2023-02-12T04:48:59.163Z,99.90
2023-02-12T04:53:02.372Z,99.90
2023-02-12T04:57:12.929Z,99.90
2023-02-12T05:01:17.681Z,99.90
2023-02-12T05:05:23.239Z,99.90
2023-02-12T05:09:26.505Z,99.90
2023-02-12T05:13:29.877Z,99.90
2023-02-12T05:17:34.642Z,99.90
2023-02-12T05:21:38.328Z,99.90
2023-02-12T05:25:41.500Z,99.90
2023-02-12T05:29:44.778Z,99.90
2023-02-12T05:33:50.976Z,99.90
2023-02-12T05:37:54.245Z,99.90
2023-02-12T05:41:57.575Z,99.90
2023-02-12T05:46:01.487Z,99.90
2023-02-12T05:50:07.225Z,99.90
2023-02-12T05:54:11.745Z,99.90
2023-02-12T05:58:16.118Z,99.90
2023-02-12T06:02:19.572Z,99.90
2023-02-12T06:06:27.133Z,99.90
2023-02-12T06:10:30.846Z,99.90
2023-02-12T06:14:34.171Z,99.90
2023-02-12T06:18:37.952Z,99.90
2023-02-12T06:22:42.558Z,99.90
2023-02-12T06:26:45.928Z,99.90
2023-02-12T06:30:49.168Z,99.90
2023-02-12T06:34:52.535Z,99.90
2023-02-12T06:38:57.257Z,99.90
2023-02-12T06:43:00.495Z,99.90
2023-02-12T06:47:03.809Z,99.90
2023-02-12T06:51:09.470Z,99.90
2023-02-12T06:55:14.060Z,99.90
2023-02-12T06:59:18.221Z,99.90
2023-02-12T07:03:21.418Z,99.90
2023-02-12T07:07:24.918Z,99.90
2023-02-12T07:11:31.863Z,99.90
2023-02-12T07:15:35.040Z,99.90
2023-02-12T07:19:39.473Z,99.90
2023-02-12T07:23:43.473Z,99.90
2023-02-12T07:27:48.040Z,99.90
2023-02-12T07:31:51.402Z,99.90
2023-02-12T07:35:55.112Z,99.90
2023-02-12T07:39:58.479Z,99.90
2023-02-12T07:44:06.902Z,99.90
2023-02-12T07:48:10.459Z,99.90
2023-02-12T07:52:13.886Z,99.00
2023-02-12T07:56:19.971Z,99.00
2023-02-12T08:00:25.068Z,97.40
2023-02-12T08:04:28.663Z,97.50
2023-02-12T08:08:32.260Z,97.20
2023-02-12T08:12:37.191Z,97.50
2023-02-12T08:16:43.964Z,97.50
2023-02-12T08:20:47.272Z,97.40
2023-02-12T08:24:50.564Z,96.40
2023-02-12T08:28:56.530Z,96.50
2023-02-12T08:33:01.157Z,96.30
2023-02-12T08:37:07.476Z,96.00
2023-02-12T08:41:12.952Z,95.10
2023-02-12T08:45:16.441Z,94.70
2023-02-12T08:49:23.038Z,94.90
2023-02-12T08:53:26.709Z,94.80
2023-02-12T08:57:30.195Z,94.80
2023-02-12T09:01:38.599Z,94.00
2023-02-12T09:05:43.669Z,92.80
2023-02-12T09:09:47.274Z,91.10
2023-02-12T09:13:50.507Z,89.70
2023-02-12T09:17:54.435Z,85.70
2023-02-12T09:21:59.243Z,83.40
2023-02-12T09:26:05.884Z,81.70
2023-02-12T09:30:10.401Z,82.70
2023-02-12T09:34:13.748Z,81.90
2023-02-12T09:38:18.431Z,82.70
2023-02-12T09:42:48.985Z,80.00
2023-02-12T09:46:56.752Z,78.40
2023-02-12T09:51:04.002Z,82.40
2023-02-12T09:55:15.536Z,82.20
2023-02-12T09:59:31.458Z,82.70
2023-02-12T10:03:34.856Z,76.20
2023-02-12T10:07:54.773Z,72.20
2023-02-12T10:12:09.304Z,68.00
2023-02-12T10:16:21.234Z,68.30
2023-02-12T10:21:02.803Z,70.20
2023-02-12T10:25:18.932Z,72.20
2023-02-12T10:29:26.616Z,72.10
2023-02-12T10:33:49.276Z,73.60
2023-02-12T10:37:58.865Z,73.80
2023-02-12T10:42:08.177Z,72.80
2023-02-12T10:46:17.415Z,71.30
2023-02-12T10:50:27.267Z,68.50
2023-02-12T10:54:36.804Z,68.50
2023-02-12T10:59:02.812Z,68.80
2023-02-12T11:03:22.417Z,70.50
2023-02-12T11:07:27.344Z,71.60
